createdAt,value
2019-04-03T00:00:08.508Z,0.00
2019-04-03T00:01:08.603Z,0.00
2019-04-03T00:02:08.752Z,0.00
2019-04-03T00:03:08.792Z,0.00
2019-04-03T00:04:08.881Z,0.00
2019-04-03T00:05:08.960Z,0.00
2019-04-03T00:06:09.104Z,0.00
2019-04-03T00:07:09.162Z,0.00
2019-04-03T00:08:09.253Z,0.00
2019-04-03T00:09:09.344Z,0.00
2019-04-03T00:10:09.459Z,0.00
2019-04-03T00:11:09.743Z,0.00
2019-04-03T00:12:10.534Z,0.00
2019-04-03T00:13:11.167Z,0.00
2019-04-03T00:14:12.128Z,0.00
2019-04-03T00:15:09.926Z,0.00
2019-04-03T00:16:10.012Z,0.00
2019-04-03T00:17:10.097Z,0.00
2019-04-03T00:18:10.183Z,0.00
2019-04-03T00:19:10.273Z,0.00
2019-04-03T00:20:10.366Z,0.00
2019-04-03T00:21:10.459Z,0.00
2019-04-03T00:22:10.552Z,0.00
2019-04-03T00:23:10.690Z,0.00
2019-04-03T00:24:10.739Z,0.00
2019-04-03T00:25:10.833Z,0.00
2019-04-03T00:26:10.925Z,0.00
2019-04-03T00:27:11.017Z,0.00
2019-04-03T00:28:11.109Z,0.00
2019-04-03T00:29:11.199Z,0.00
2019-04-03T00:30:11.383Z,0.00
2019-04-03T00:31:11.386Z,0.00
2019-04-03T00:32:11.500Z,0.00
2019-04-03T00:33:11.580Z,0.00
2019-04-03T00:34:11.669Z,0.00
2019-04-03T00:35:11.761Z,0.00
2019-04-03T00:36:11.867Z,0.00
2019-04-03T00:37:11.942Z,0.00
2019-04-03T00:38:12.036Z,0.00
2019-04-03T00:39:12.125Z,0.00
2019-04-03T00:40:12.218Z,0.00
2019-04-03T00:41:12.417Z,0.00
2019-04-03T00:42:12.405Z,0.00
2019-04-03T00:43:12.545Z,0.00
2019-04-03T00:44:12.594Z,0.00
2019-04-03T00:45:12.689Z,0.00
2019-04-03T00:46:12.782Z,0.00
2019-04-03T00:47:12.873Z,0.00
2019-04-03T00:48:13.090Z,0.00
2019-04-03T00:49:13.059Z,0.00
2019-04-03T00:50:13.152Z,0.00
2019-04-03T00:51:13.243Z,0.00
2019-04-03T00:52:13.336Z,0.00
2019-04-03T00:53:13.428Z,0.00
2019-04-03T00:54:13.532Z,0.00
2019-04-03T00:55:13.618Z,0.00
2019-04-03T00:56:13.730Z,0.00
2019-04-03T00:57:13.851Z,0.00
2019-04-03T00:58:13.931Z,0.00
2019-04-03T00:59:14.020Z,0.00
2019-04-03T01:00:14.114Z,0.00
2019-04-03T01:01:14.213Z,0.00
2019-04-03T01:02:16.433Z,0.00
2019-04-03T01:03:14.381Z,0.00
2019-04-03T01:04:14.537Z,0.00
2019-04-03T01:05:14.574Z,0.00
2019-04-03T01:06:14.786Z,0.00
2019-04-03T01:07:14.760Z,0.00
2019-04-03T01:08:14.911Z,0.00
2019-04-03T01:09:14.955Z,0.00
2019-04-03T01:10:15.047Z,0.00
2019-04-03T01:11:15.139Z,0.00
2019-04-03T01:12:15.232Z,0.00
2019-04-03T01:13:15.326Z,0.00
2019-04-03T01:14:15.414Z,0.00
2019-04-03T01:15:15.504Z,0.00
2019-04-03T01:16:15.631Z,0.00
2019-04-03T01:17:15.762Z,0.00
2019-04-03T01:18:15.824Z,0.00
2019-04-03T01:19:15.969Z,0.00
2019-04-03T01:20:15.994Z,0.00
2019-04-03T01:21:16.103Z,0.00
2019-04-03T01:22:16.190Z,0.00
2019-04-03T01:23:16.285Z,0.00
2019-04-03T01:24:16.375Z,0.00
2019-04-03T01:25:16.468Z,0.00
2019-04-03T01:26:16.559Z,0.00
2019-04-03T01:27:16.658Z,0.00
2019-04-03T01:28:16.744Z,0.00
2019-04-03T01:29:16.837Z,0.00
2019-04-03T01:30:17.141Z,0.00
2019-04-03T01:31:17.022Z,0.00
2019-04-03T01:32:17.124Z,0.00
2019-04-03T01:33:17.250Z,0.00
2019-04-03T01:34:17.929Z,0.00
2019-04-03T01:35:17.846Z,0.00
2019-04-03T01:36:18.187Z,0.00
2019-04-03T01:37:19.198Z,0.00
2019-04-03T01:38:19.432Z,0.00
2019-04-03T01:39:18.982Z,0.00
2019-04-03T01:40:20.151Z,0.00
2019-04-03T01:41:18.885Z,0.00
2019-04-03T01:42:18.036Z,0.00
2019-04-03T01:43:18.135Z,0.00
2019-04-03T01:44:18.233Z,0.00
2019-04-03T01:45:18.440Z,0.00
2019-04-03T01:46:18.412Z,0.00
2019-04-03T01:47:18.504Z,0.00
2019-04-03T01:48:18.597Z,0.00
2019-04-03T01:49:18.690Z,0.00
2019-04-03T01:50:18.913Z,0.00
2019-04-03T01:51:18.874Z,0.00
2019-04-03T01:52:18.967Z,0.00
2019-04-03T01:53:19.056Z,0.00
2019-04-03T01:54:19.147Z,0.00
2019-04-03T01:55:19.243Z,0.00
2019-04-03T01:56:19.378Z,0.00
2019-04-03T01:57:19.437Z,0.00
2019-04-03T01:58:19.532Z,0.00
2019-04-03T01:59:19.645Z,0.00
2019-04-03T02:00:19.724Z,0.00
2019-04-03T02:01:19.806Z,0.00
2019-04-03T02:02:19.907Z,0.00
2019-04-03T02:03:19.990Z,0.00
2019-04-03T02:04:20.076Z,0.00
2019-04-03T02:05:20.169Z,0.00
2019-04-03T02:06:20.263Z,4.00
2019-04-03T02:07:20.368Z,0.00
2019-04-03T02:08:20.457Z,0.00
2019-04-03T02:09:20.550Z,0.00
2019-04-03T02:10:20.643Z,0.00
2019-04-03T02:11:20.749Z,0.00
2019-04-03T02:12:20.827Z,0.00
2019-04-03T02:13:21.893Z,0.00
2019-04-03T02:14:22.134Z,0.00
2019-04-03T02:15:21.694Z,0.00
2019-04-03T02:16:21.474Z,0.00
2019-04-03T02:17:21.834Z,0.00
2019-04-03T02:18:21.370Z,0.00
2019-04-03T02:19:21.458Z,0.00
2019-04-03T02:20:21.575Z,0.00
2019-04-03T02:21:21.646Z,0.00
2019-04-03T02:22:21.738Z,0.00
2019-04-03T02:23:21.827Z,0.00
2019-04-03T02:24:21.926Z,0.00
2019-04-03T02:25:22.016Z,0.00
2019-04-03T02:26:22.108Z,0.00
2019-04-03T02:27:22.209Z,0.00
2019-04-03T02:28:22.318Z,0.00
2019-04-03T02:29:22.577Z,0.00
2019-04-03T02:30:22.623Z,0.00
2019-04-03T02:31:22.571Z,0.00
2019-04-03T02:32:24.206Z,0.00
2019-04-03T02:33:22.756Z,0.00
2019-04-03T02:34:22.911Z,0.00
2019-04-03T02:35:22.935Z,0.00
2019-04-03T02:36:23.036Z,0.00
2019-04-03T02:37:23.118Z,0.00
2019-04-03T02:38:23.826Z,0.00
2019-04-03T02:39:26.138Z,0.00
2019-04-03T02:40:23.407Z,0.00
2019-04-03T02:41:23.514Z,0.00
2019-04-03T02:42:23.738Z,0.00
2019-04-03T02:43:23.689Z,4.00
2019-04-03T02:44:23.781Z,0.00
2019-04-03T02:45:24.703Z,0.00
2019-04-03T02:46:27.495Z,0.00
2019-04-03T02:47:24.048Z,0.00
2019-04-03T02:48:24.134Z,0.00
2019-04-03T02:49:24.289Z,0.00
2019-04-03T02:50:24.445Z,0.00
2019-04-03T02:51:24.409Z,0.00
2019-04-03T02:52:25.471Z,0.00
2019-04-03T02:53:24.884Z,0.00
2019-04-03T02:54:24.684Z,0.00
2019-04-03T02:55:24.965Z,0.00
2019-04-03T02:56:24.907Z,0.00
2019-04-03T02:57:24.959Z,0.00
2019-04-03T02:58:25.074Z,0.00
2019-04-03T02:59:25.952Z,0.00
2019-04-03T03:00:25.259Z,0.00
2019-04-03T03:01:25.359Z,0.00
2019-04-03T03:02:25.687Z,0.00
2019-04-03T03:03:25.813Z,0.00
2019-04-03T03:04:26.122Z,0.00
2019-04-03T03:05:28.386Z,0.00
2019-04-03T03:06:25.842Z,0.00
2019-04-03T03:07:25.909Z,0.00
2019-04-03T03:08:25.999Z,0.00
2019-04-03T03:09:26.442Z,0.00
2019-04-03T03:10:26.189Z,0.00
2019-04-03T03:11:26.280Z,0.00
2019-04-03T03:12:27.674Z,0.00
2019-04-03T03:13:26.477Z,0.00
2019-04-03T03:14:26.597Z,0.00
2019-04-03T03:15:26.721Z,0.00
2019-04-03T03:16:26.932Z,0.00
2019-04-03T03:17:26.838Z,0.00
2019-04-03T03:18:28.099Z,0.00
2019-04-03T03:19:27.006Z,0.00
2019-04-03T03:20:27.098Z,0.00
2019-04-03T03:21:27.185Z,0.00
2019-04-03T03:22:27.279Z,0.00
2019-04-03T03:23:27.371Z,0.00
2019-04-03T03:24:29.365Z,0.00
2019-04-03T03:25:27.555Z,0.00
2019-04-03T03:26:27.645Z,0.00
2019-04-03T03:27:27.741Z,0.00
2019-04-03T03:28:27.830Z,0.00
2019-04-03T03:29:28.152Z,0.00
2019-04-03T03:30:38.727Z,0.00
2019-04-03T03:31:57.454Z,0.00
2019-04-03T03:32:33.409Z,0.00
2019-04-03T03:33:35.691Z,0.00
2019-04-03T03:34:48.936Z,0.00
2019-04-03T03:35:34.682Z,0.00
2019-04-03T03:36:29.105Z,0.00
2019-04-03T03:37:30.720Z,0.00
2019-04-03T03:38:28.847Z,0.00
2019-04-03T03:39:28.837Z,0.00
2019-04-03T03:40:28.929Z,0.00
2019-04-03T03:41:29.383Z,0.00
2019-04-03T03:42:31.327Z,0.00
2019-04-03T03:43:29.202Z,0.00
2019-04-03T03:44:29.293Z,0.00
2019-04-03T03:45:29.430Z,0.00
2019-04-03T03:46:29.599Z,0.00
2019-04-03T03:47:34.203Z,0.00
2019-04-03T03:48:29.803Z,0.00
2019-04-03T03:49:29.879Z,0.00
2019-04-03T03:50:29.794Z,0.00
2019-04-03T03:51:31.114Z,0.00
2019-04-03T03:52:29.979Z,0.00
2019-04-03T03:53:30.255Z,0.00
2019-04-03T03:54:30.474Z,0.00
2019-04-03T03:55:30.257Z,0.00
2019-04-03T03:56:31.303Z,0.00
2019-04-03T03:57:30.438Z,0.00
2019-04-03T03:58:30.533Z,0.00
2019-04-03T03:59:30.622Z,0.00
2019-04-03T04:00:30.866Z,0.00
2019-04-03T04:01:31.937Z,0.00
2019-04-03T04:02:30.925Z,0.00
2019-04-03T04:03:30.986Z,0.00
2019-04-03T04:04:31.086Z,0.00
2019-04-03T04:05:31.210Z,0.00
2019-04-03T04:06:35.016Z,0.00
2019-04-03T04:07:31.369Z,0.00
2019-04-03T04:08:31.681Z,0.00
2019-04-03T04:09:31.549Z,0.00
2019-04-03T04:10:35.473Z,0.00
2019-04-03T04:11:32.448Z,0.00
2019-04-03T04:12:31.816Z,0.00
2019-04-03T04:13:31.946Z,0.00
2019-04-03T04:14:32.012Z,0.00
2019-04-03T04:15:32.440Z,0.00
2019-04-03T04:16:37.031Z,0.00
2019-04-03T04:17:32.309Z,0.00
2019-04-03T04:18:32.716Z,0.00
2019-04-03T04:19:32.532Z,0.00
2019-04-03T04:20:36.669Z,0.00
2019-04-03T04:21:32.676Z,4.00
2019-04-03T04:22:32.760Z,0.00
2019-04-03T04:23:32.853Z,0.00
2019-04-03T04:24:32.941Z,0.00
2019-04-03T04:25:33.052Z,0.00
2019-04-03T04:26:33.124Z,0.00
2019-04-03T04:27:35.637Z,4.00
2019-04-03T04:28:33.317Z,4.00
2019-04-03T04:29:33.424Z,4.00
2019-04-03T04:30:33.555Z,4.00
2019-04-03T04:31:33.608Z,4.00
2019-04-03T04:32:33.651Z,8.00
2019-04-03T04:33:33.752Z,8.00
2019-04-03T04:34:33.858Z,4.00
2019-04-03T04:35:33.936Z,8.00
2019-04-03T04:36:34.034Z,4.00
2019-04-03T04:37:34.356Z,8.00
2019-04-03T04:38:34.219Z,12.00
2019-04-03T04:39:34.316Z,8.00
2019-04-03T04:40:34.413Z,8.00
2019-04-03T04:41:34.603Z,12.00
2019-04-03T04:42:35.327Z,8.00
2019-04-03T04:43:34.692Z,12.00
2019-04-03T04:44:34.835Z,8.00
2019-04-03T04:45:34.881Z,16.00
2019-04-03T04:46:34.975Z,16.00
2019-04-03T04:47:35.067Z,20.00
2019-04-03T04:48:35.248Z,16.00
2019-04-03T04:49:35.250Z,20.00
2019-04-03T04:50:35.342Z,24.00
2019-04-03T04:51:35.433Z,24.00
2019-04-03T04:52:35.525Z,28.00
2019-04-03T04:53:35.935Z,28.00
2019-04-03T04:54:35.710Z,28.00
2019-04-03T04:55:36.026Z,32.00
2019-04-03T04:56:37.805Z,36.00
2019-04-03T04:57:36.014Z,36.00
2019-04-03T04:58:36.108Z,44.00
2019-04-03T04:59:36.790Z,48.00
2019-04-03T05:00:36.292Z,52.00
2019-04-03T05:01:36.383Z,56.00
2019-04-03T05:02:36.475Z,60.00
2019-04-03T05:03:36.567Z,68.00
2019-04-03T05:04:36.699Z,72.00
2019-04-03T05:05:36.758Z,80.00
2019-04-03T05:06:36.851Z,88.00
2019-04-03T05:07:36.948Z,92.00
2019-04-03T05:08:37.032Z,96.00
2019-04-03T05:09:37.122Z,100.00
2019-04-03T05:10:37.368Z,104.00
2019-04-03T05:11:39.061Z,108.00
2019-04-03T05:12:38.982Z,116.00
2019-04-03T05:13:37.499Z,124.00
2019-04-03T05:14:37.623Z,132.00
2019-04-03T05:15:37.736Z,140.00
2019-04-03T05:16:37.827Z,152.00
2019-04-03T05:17:37.926Z,160.00
2019-04-03T05:18:38.034Z,168.00
2019-04-03T05:19:38.369Z,176.00
2019-04-03T05:20:38.198Z,180.00
2019-04-03T05:21:38.291Z,180.00
2019-04-03T05:22:38.385Z,180.00
2019-04-03T05:23:38.477Z,180.00
2019-04-03T05:24:38.571Z,184.00
2019-04-03T05:25:38.850Z,192.00
2019-04-03T05:26:38.750Z,196.00
2019-04-03T05:27:38.839Z,204.00
2019-04-03T05:28:38.930Z,216.00
2019-04-03T05:29:39.022Z,228.00
2019-04-03T05:30:39.112Z,236.00
2019-04-03T05:31:39.539Z,244.00
2019-04-03T05:32:41.161Z,252.00
2019-04-03T05:33:41.143Z,252.00
2019-04-03T05:34:39.480Z,252.00
2019-04-03T05:35:39.585Z,256.00
2019-04-03T05:36:39.667Z,256.00
2019-04-03T05:37:39.761Z,260.00
2019-04-03T05:38:39.848Z,268.00
2019-04-03T05:39:40.063Z,268.00
2019-04-03T05:40:40.117Z,276.00
2019-04-03T05:41:40.126Z,272.00
2019-04-03T05:42:40.216Z,276.00
2019-04-03T05:43:40.313Z,288.00
2019-04-03T05:44:40.402Z,300.00
2019-04-03T05:45:41.751Z,312.00
2019-04-03T05:46:41.615Z,324.00
2019-04-03T05:47:40.709Z,332.00
2019-04-03T05:48:40.813Z,336.00
2019-04-03T05:49:40.925Z,340.00
2019-04-03T05:50:41.000Z,344.00
2019-04-03T05:51:41.321Z,352.00
2019-04-03T05:52:41.178Z,356.00
2019-04-03T05:53:41.269Z,364.00
2019-04-03T05:54:44.010Z,368.00
2019-04-03T05:55:41.759Z,360.00
2019-04-03T05:56:42.972Z,356.00
2019-04-03T05:57:41.693Z,356.00
2019-04-03T05:58:54.010Z,368.00
2019-04-03T05:59:43.833Z,392.00
2019-04-03T06:00:41.909Z,420.00
2019-04-03T06:01:45.713Z,444.00
2019-04-03T06:02:42.099Z,452.00
2019-04-03T06:03:44.834Z,432.00
2019-04-03T06:04:42.749Z,408.00
2019-04-03T06:05:44.045Z,396.00
2019-04-03T06:06:42.632Z,384.00
2019-04-03T06:07:42.554Z,368.00
2019-04-03T06:08:42.651Z,360.00
2019-04-03T06:09:42.739Z,372.00
2019-04-03T06:10:43.026Z,396.00
2019-04-03T06:11:42.976Z,436.00
2019-04-03T06:12:45.363Z,500.00
2019-04-03T06:13:43.334Z,576.00
2019-04-03T06:14:43.455Z,660.00
2019-04-03T06:15:43.295Z,756.00
2019-04-03T06:16:43.381Z,828.00
2019-04-03T06:17:43.472Z,880.00
2019-04-03T06:18:43.575Z,916.00
2019-04-03T06:19:43.655Z,948.00
2019-04-03T06:20:44.021Z,984.00
2019-04-03T06:21:45.645Z,1012.00
2019-04-03T06:22:43.941Z,1064.00
2019-04-03T06:23:45.059Z,1088.00
2019-04-03T06:24:44.131Z,1108.00
2019-04-03T06:25:44.224Z,1100.00
2019-04-03T06:26:45.075Z,1104.00
2019-04-03T06:27:46.242Z,1088.00
2019-04-03T06:28:46.679Z,1080.00
2019-04-03T06:29:44.601Z,1072.00
2019-04-03T06:30:44.759Z,1076.00
2019-04-03T06:31:44.786Z,1076.00
2019-04-03T06:32:44.889Z,1064.00
2019-04-03T06:33:44.981Z,1064.00
2019-04-03T06:34:45.070Z,1040.00
2019-04-03T06:35:46.070Z,1016.00
2019-04-03T06:36:45.253Z,980.00
2019-04-03T06:37:45.348Z,948.00
2019-04-03T06:38:45.503Z,896.00
2019-04-03T06:39:45.710Z,864.00
2019-04-03T06:40:45.632Z,840.00
2019-04-03T06:41:45.738Z,836.00
2019-04-03T06:42:45.829Z,836.00
2019-04-03T06:43:49.118Z,836.00
2019-04-03T06:44:46.085Z,816.00
2019-04-03T06:45:46.247Z,800.00
2019-04-03T06:46:46.204Z,768.00
2019-04-03T06:47:46.305Z,720.00
2019-04-03T06:48:46.391Z,672.00
2019-04-03T06:49:46.483Z,636.00
2019-04-03T06:50:46.577Z,612.00
2019-04-03T06:51:48.907Z,608.00
2019-04-03T06:52:46.764Z,628.00
2019-04-03T06:53:47.125Z,636.00
2019-04-03T06:54:47.190Z,680.00
2019-04-03T06:55:47.046Z,680.00
2019-04-03T06:56:47.140Z,708.00
2019-04-03T06:57:47.397Z,744.00
2019-04-03T06:58:47.333Z,780.00
2019-04-03T06:59:48.730Z,832.00
2019-04-03T07:00:47.678Z,924.00
2019-04-03T07:01:47.653Z,1028.00
2019-04-03T07:02:47.710Z,1172.00
2019-04-03T07:03:47.985Z,1328.00
2019-04-03T07:04:47.913Z,1468.00
2019-04-03T07:05:47.996Z,1564.00
2019-04-03T07:06:48.110Z,1624.00
2019-04-03T07:07:48.174Z,1660.00
2019-04-03T07:08:48.265Z,1688.00
2019-04-03T07:09:50.414Z,1704.00
2019-04-03T07:10:54.970Z,1688.00
2019-04-03T07:11:48.529Z,1640.00
2019-04-03T07:12:48.692Z,1572.00
2019-04-03T07:13:48.713Z,1512.00
2019-04-03T07:14:48.867Z,1428.00
2019-04-03T07:15:48.899Z,1352.00
2019-04-03T07:16:48.991Z,1300.00
2019-04-03T07:17:49.393Z,1300.00
2019-04-03T07:18:49.237Z,1332.00
2019-04-03T07:19:49.562Z,1400.00
2019-04-03T07:20:51.284Z,1492.00
2019-04-03T07:21:49.509Z,1568.00
2019-04-03T07:22:49.667Z,1600.00
2019-04-03T07:23:49.747Z,1592.00
2019-04-03T07:24:49.811Z,1608.00
2019-04-03T07:25:49.957Z,1632.00
2019-04-03T07:26:50.038Z,1656.00
2019-04-03T07:27:50.123Z,1692.00
2019-04-03T07:28:50.276Z,1744.00
2019-04-03T07:29:50.381Z,1848.00
2019-04-03T07:30:52.809Z,1968.00
2019-04-03T07:31:50.558Z,2104.00
2019-04-03T07:32:50.590Z,2268.00
2019-04-03T07:33:50.684Z,2384.00
2019-04-03T07:34:50.776Z,2544.00
2019-04-03T07:35:50.873Z,2696.00
2019-04-03T07:36:50.964Z,2704.00
2019-04-03T07:37:51.662Z,2684.00
2019-04-03T07:38:51.141Z,2596.00
2019-04-03T07:39:51.229Z,2476.00
2019-04-03T07:40:52.366Z,2348.00
2019-04-03T07:41:53.230Z,2244.00
2019-04-03T07:42:51.514Z,2212.00
2019-04-03T07:43:51.639Z,2296.00
2019-04-03T07:44:51.688Z,2504.00
2019-04-03T07:45:51.775Z,2704.00
2019-04-03T07:46:54.646Z,2884.00
2019-04-03T07:47:51.973Z,2976.00
2019-04-03T07:48:52.074Z,3004.00
2019-04-03T07:49:52.142Z,2992.00
2019-04-03T07:50:52.242Z,2964.00
2019-04-03T07:51:52.334Z,2948.00
2019-04-03T07:52:52.427Z,2980.00
2019-04-03T07:53:52.626Z,3032.00
2019-04-03T07:54:53.100Z,3068.00
2019-04-03T07:55:54.984Z,3076.00
2019-04-03T07:56:53.128Z,3076.00
2019-04-03T07:57:52.900Z,3072.00
2019-04-03T07:58:52.989Z,3060.00
2019-04-03T07:59:53.102Z,3056.00
2019-04-03T08:00:53.174Z,3076.00
2019-04-03T08:01:53.266Z,3096.00
2019-04-03T08:02:53.513Z,3096.00
2019-04-03T08:03:53.499Z,3092.00
2019-04-03T08:04:55.731Z,3104.00
2019-04-03T08:05:55.902Z,3156.00
2019-04-03T08:06:53.758Z,3236.00
2019-04-03T08:07:54.068Z,3304.00
2019-04-03T08:09:06.532Z,3348.00
2019-04-03T08:09:56.962Z,3352.00
2019-04-03T08:10:54.105Z,3404.00
2019-04-03T08:11:54.315Z,3460.00
2019-04-03T08:12:54.293Z,3652.00
2019-04-03T08:13:54.555Z,3804.00
2019-04-03T08:14:54.474Z,3916.00
2019-04-03T08:15:54.821Z,4004.00
2019-04-03T08:16:56.325Z,4068.00
2019-04-03T08:17:57.390Z,4092.00
2019-04-03T08:18:55.003Z,4100.00
2019-04-03T08:19:55.262Z,4052.00
2019-04-03T08:20:56.783Z,3956.00
2019-04-03T08:21:55.131Z,3820.00
2019-04-03T08:22:55.225Z,3904.00
2019-04-03T08:23:55.322Z,4016.00
2019-04-03T08:24:55.745Z,4044.00
2019-04-03T08:25:55.788Z,4112.00
2019-04-03T08:26:55.680Z,4092.00
2019-04-03T08:27:55.891Z,4068.00
2019-04-03T08:28:56.087Z,4124.00
2019-04-03T08:29:55.891Z,4232.00
2019-04-03T08:30:56.009Z,4268.00
2019-04-03T08:31:56.089Z,4380.00
2019-04-03T08:32:56.299Z,4372.00
2019-04-03T08:33:58.753Z,4232.00
2019-04-03T08:34:56.679Z,4028.00
2019-04-03T08:35:56.655Z,3940.00
2019-04-03T08:36:56.550Z,3956.00
2019-04-03T08:37:56.646Z,3996.00
2019-04-03T08:38:56.737Z,4020.00
2019-04-03T08:39:58.500Z,3968.00
2019-04-03T08:40:57.162Z,3972.00
2019-04-03T08:41:57.266Z,3940.00
2019-04-03T08:42:59.316Z,3900.00
2019-04-03T08:43:57.517Z,3808.00
2019-04-03T08:44:57.307Z,3656.00
2019-04-03T08:45:57.400Z,3536.00
2019-04-03T08:46:57.660Z,3460.00
2019-04-03T08:47:57.616Z,3392.00
2019-04-03T08:48:57.742Z,3396.00
2019-04-03T08:49:58.365Z,3488.00
2019-04-03T08:50:58.486Z,3924.00
2019-04-03T08:51:58.235Z,3776.00
2019-04-03T08:52:58.042Z,3932.00
2019-04-03T08:53:58.293Z,3992.00
2019-04-03T08:54:58.228Z,3940.00
2019-04-03T08:55:58.318Z,3808.00
2019-04-03T08:56:58.413Z,3676.00
2019-04-03T08:57:58.577Z,3508.00
2019-04-03T08:58:58.716Z,3324.00
2019-04-03T09:00:00.722Z,3160.00
2019-04-03T09:00:58.792Z,3052.00
2019-04-03T09:01:58.882Z,3000.00
2019-04-03T09:02:59.029Z,2952.00
2019-04-03T09:03:59.207Z,2908.00
2019-04-03T09:04:59.169Z,2904.00
2019-04-03T09:05:59.260Z,2948.00
2019-04-03T09:06:59.356Z,3028.00
2019-04-03T09:07:59.750Z,3120.00
2019-04-03T09:08:59.586Z,3200.00
2019-04-03T09:10:01.064Z,3252.00
2019-04-03T09:10:59.708Z,3280.00
2019-04-03T09:11:59.802Z,3280.00
2019-04-03T09:12:59.901Z,3308.00
2019-04-03T09:13:59.999Z,3384.00
2019-04-03T09:15:00.093Z,3440.00
2019-04-03T09:16:00.408Z,3504.00
2019-04-03T09:17:02.272Z,3528.00
2019-04-03T09:18:00.498Z,3524.00
2019-04-03T09:19:00.490Z,3520.00
2019-04-03T09:20:00.584Z,3548.00
2019-04-03T09:21:00.677Z,3604.00
2019-04-03T09:22:00.770Z,3624.00
2019-04-03T09:23:01.068Z,3548.00
2019-04-03T09:24:01.236Z,3424.00
2019-04-03T09:25:01.109Z,3292.00
2019-04-03T09:26:03.093Z,3188.00
2019-04-03T09:27:01.238Z,3224.00
2019-04-03T09:28:01.332Z,3360.00
2019-04-03T09:29:01.422Z,3448.00
2019-04-03T09:30:01.840Z,3468.00
2019-04-03T09:31:01.606Z,3492.00
2019-04-03T09:32:01.702Z,3680.00
2019-04-03T09:33:01.819Z,3828.00
2019-04-03T09:34:02.099Z,3928.00
2019-04-03T09:35:02.438Z,3976.00
2019-04-03T09:36:04.328Z,4024.00
2019-04-03T09:37:02.328Z,4144.00
2019-04-03T09:38:02.253Z,4104.00
2019-04-03T09:39:02.550Z,4116.00
2019-04-03T09:40:02.838Z,4168.00
2019-04-03T09:41:02.514Z,4244.00
2019-04-03T09:42:02.605Z,4432.00
2019-04-03T09:43:02.701Z,4808.00
2019-04-03T09:44:02.795Z,5156.00
2019-04-03T09:45:03.011Z,5376.00
2019-04-03T09:46:03.308Z,6064.00
2019-04-03T09:47:03.778Z,6124.00
2019-04-03T09:48:05.174Z,6372.00
2019-04-03T09:49:03.471Z,6652.00
2019-04-03T09:50:03.361Z,6804.00
2019-04-03T09:51:03.439Z,6932.00
2019-04-03T09:52:03.697Z,7096.00
2019-04-03T09:53:03.625Z,7120.00
2019-04-03T09:55:46.326Z,7252.00
2019-04-03T09:56:57.863Z,7364.00
2019-04-03T09:57:46.630Z,7148.00
2019-04-03T09:58:46.554Z,7332.00
2019-04-03T09:59:46.647Z,7344.00
2019-04-03T10:00:46.741Z,7548.00
2019-04-03T10:01:47.920Z,7552.00
2019-04-03T10:02:46.938Z,6936.00
2019-04-03T10:03:47.086Z,6812.00
2019-04-03T10:04:47.119Z,6780.00
2019-04-03T10:05:47.225Z,6668.00
2019-04-03T10:06:47.467Z,6508.00
2019-04-03T10:07:47.401Z,6068.00
2019-04-03T10:08:47.498Z,5348.00
2019-04-03T10:09:47.595Z,4476.00
2019-04-03T10:10:47.945Z,4016.00
2019-04-03T10:11:49.090Z,3876.00
2019-04-03T10:12:48.938Z,3504.00
2019-04-03T10:13:47.982Z,3348.00
2019-04-03T10:14:48.358Z,3680.00
2019-04-03T10:15:48.265Z,4308.00
2019-04-03T10:16:48.231Z,5004.00
2019-04-03T10:17:48.749Z,5916.00
2019-04-03T10:18:48.421Z,6844.00
2019-04-03T10:19:48.753Z,7228.00
2019-04-03T10:20:49.503Z,7500.00
2019-04-03T10:21:52.162Z,7724.00
2019-04-03T10:22:48.801Z,7708.00
2019-04-03T10:23:48.893Z,7744.00
2019-04-03T10:24:48.988Z,7556.00
2019-04-03T10:25:49.113Z,7336.00
2019-04-03T10:26:49.483Z,7072.00
2019-04-03T10:27:49.268Z,6816.00
2019-04-03T10:28:49.383Z,6376.00
2019-04-03T10:29:50.557Z,5904.00
2019-04-03T10:30:52.456Z,5160.00
2019-04-03T10:31:49.637Z,4328.00
2019-04-03T10:32:50.348Z,3764.00
2019-04-03T10:33:49.821Z,3320.00
2019-04-03T10:34:50.054Z,2932.00
2019-04-03T10:35:50.084Z,2468.00
2019-04-03T10:36:50.090Z,2128.00
2019-04-03T10:37:50.177Z,2068.00
2019-04-03T10:38:50.271Z,2200.00
2019-04-03T10:39:52.772Z,2488.00
2019-04-03T10:40:50.457Z,2812.00
2019-04-03T10:41:50.662Z,3180.00
2019-04-03T10:42:50.652Z,3480.00
2019-04-03T10:43:51.053Z,3588.00
2019-04-03T10:44:51.258Z,3648.00
2019-04-03T10:45:50.933Z,3776.00
2019-04-03T10:46:51.260Z,3888.00
2019-04-03T10:47:51.122Z,4020.00
2019-04-03T10:48:51.218Z,4248.00
2019-04-03T10:49:51.579Z,4460.00
2019-04-03T10:50:51.527Z,4320.00
2019-04-03T10:51:51.769Z,4160.00
2019-04-03T10:52:51.595Z,4308.00
2019-04-03T10:53:52.437Z,4260.00
2019-04-03T10:54:51.791Z,4184.00
2019-04-03T10:55:51.881Z,3952.00
2019-04-03T10:56:52.110Z,3788.00
2019-04-03T10:57:52.085Z,3760.00
2019-04-03T10:58:52.168Z,3564.00
2019-04-03T10:59:54.919Z,3352.00
2019-04-03T11:00:52.679Z,3168.00
2019-04-03T11:01:52.441Z,3224.00
2019-04-03T11:02:52.535Z,3624.00
2019-04-03T11:03:52.628Z,3680.00
2019-04-03T11:04:52.941Z,3664.00
2019-04-03T11:05:52.890Z,4040.00
2019-04-03T11:06:52.912Z,4188.00
2019-04-03T11:07:53.009Z,4276.00
2019-04-03T11:08:53.279Z,4352.00
2019-04-03T11:09:53.212Z,4508.00
2019-04-03T11:10:53.294Z,4900.00
2019-04-03T11:11:53.385Z,5332.00
2019-04-03T11:12:53.474Z,5376.00
2019-04-03T11:13:53.580Z,4956.00
2019-04-03T11:14:53.776Z,4040.00
2019-04-03T11:15:53.775Z,3904.00
2019-04-03T11:16:53.887Z,4332.00
2019-04-03T11:17:54.028Z,4736.00
2019-04-03T11:18:59.940Z,4628.00
2019-04-03T11:19:54.417Z,4392.00
2019-04-03T11:20:54.510Z,4436.00
2019-04-03T11:21:56.037Z,4100.00
2019-04-03T11:23:04.008Z,4016.00
2019-04-03T11:23:54.887Z,4112.00
2019-04-03T11:24:54.642Z,4360.00
2019-04-03T11:25:54.747Z,4760.00
2019-04-03T11:26:54.914Z,5760.00
2019-04-03T11:27:55.059Z,5440.00
2019-04-03T11:28:55.052Z,5900.00
2019-04-03T11:29:55.200Z,6156.00
2019-04-03T11:30:56.318Z,5908.00
2019-04-03T11:31:55.319Z,4720.00
2019-04-03T11:32:55.420Z,3704.00
2019-04-03T11:33:55.528Z,3308.00
2019-04-03T11:34:55.606Z,3328.00
2019-04-03T11:35:55.703Z,3748.00
2019-04-03T11:36:56.160Z,4088.00
2019-04-03T11:37:56.201Z,4204.00
2019-04-03T11:39:10.424Z,4232.00
2019-04-03T11:40:02.428Z,4152.00
2019-04-03T11:40:56.180Z,4028.00
2019-04-03T11:41:56.498Z,3860.00
2019-04-03T11:42:57.279Z,3632.00
2019-04-03T11:43:56.495Z,3452.00
2019-04-03T11:44:56.591Z,3360.00
2019-04-03T11:45:57.072Z,3264.00
2019-04-03T11:46:56.913Z,3148.00
2019-04-03T11:47:56.902Z,2804.00
2019-04-03T11:48:56.981Z,2520.00
2019-04-03T11:49:57.075Z,2356.00
2019-04-03T11:50:57.670Z,2388.00
2019-04-03T11:51:58.964Z,2316.00
2019-04-03T11:52:59.146Z,2204.00
2019-04-03T11:53:57.681Z,2084.00
2019-04-03T11:54:57.559Z,1932.00
2019-04-03T11:55:57.655Z,1896.00
2019-04-03T11:56:57.988Z,2000.00
2019-04-03T11:57:58.127Z,2116.00
2019-04-03T11:58:57.955Z,2200.00
2019-04-03T11:59:58.040Z,2244.00
2019-04-03T12:00:58.562Z,2492.00
2019-04-03T12:01:58.593Z,2712.00
2019-04-03T12:02:58.753Z,2936.00
2019-04-03T12:03:58.503Z,3236.00
2019-04-03T12:04:58.825Z,3756.00
2019-04-03T12:05:58.929Z,4464.00
2019-04-03T12:06:58.794Z,5020.00
2019-04-03T12:07:58.887Z,5376.00
2019-04-03T12:09:00.950Z,5968.00
2019-04-03T12:09:59.417Z,6920.00
2019-04-03T12:10:59.539Z,8788.00
2019-04-03T12:11:59.279Z,8876.00
2019-04-03T12:12:59.374Z,9016.00
2019-04-03T12:13:59.473Z,9180.00
2019-04-03T12:14:59.635Z,9232.00
2019-04-03T12:15:59.660Z,9408.00
2019-04-03T12:17:00.192Z,9384.00
2019-04-03T12:18:01.160Z,9624.00
2019-04-03T12:18:59.984Z,10592.00
2019-04-03T12:20:00.062Z,10284.00
2019-04-03T12:21:00.274Z,9724.00
2019-04-03T12:22:00.309Z,8772.00
2019-04-03T12:23:00.406Z,8844.00
2019-04-03T12:24:00.573Z,7768.00
2019-04-03T12:25:00.682Z,7040.00
2019-04-03T12:26:00.696Z,7324.00
2019-04-03T12:27:01.040Z,8228.00
2019-04-03T12:28:01.129Z,7092.00
2019-04-03T12:29:00.990Z,6724.00
2019-04-03T12:30:01.098Z,7092.00
2019-04-03T12:31:01.458Z,6536.00
2019-04-03T12:32:03.339Z,6444.00
2019-04-03T12:33:01.380Z,6752.00
2019-04-03T12:34:05.255Z,6792.00
2019-04-03T12:35:01.564Z,6832.00
2019-04-03T12:36:01.808Z,8712.00
2019-04-03T12:37:01.788Z,8612.00
2019-04-03T12:38:01.919Z,8500.00